createdAt,value
2019-06-10T00:02:04.187Z,15.94
2019-06-10T00:04:33.292Z,15.89
2019-06-10T00:07:04.160Z,15.84
2019-06-10T00:09:33.879Z,15.78
2019-06-10T00:12:04.750Z,15.72
2019-06-10T00:14:34.312Z,15.66
2019-06-10T00:17:05.097Z,15.61
2019-06-10T00:19:34.776Z,15.55
2019-06-10T00:22:06.579Z,15.47
2019-06-10T00:24:35.315Z,15.42
2019-06-10T00:27:07.220Z,15.36
2019-06-10T00:29:36.737Z,15.31
2019-06-10T00:32:08.162Z,15.29
2019-06-10T00:34:37.311Z,15.25
2019-06-10T00:37:09.001Z,15.20
2019-06-10T00:39:37.723Z,15.17
2019-06-10T00:42:09.589Z,15.16
2019-06-10T00:44:38.192Z,15.13
2019-06-10T00:47:09.291Z,15.12
2019-06-10T00:49:40.801Z,15.10
2019-06-10T00:52:12.213Z,15.07
2019-06-10T00:54:41.792Z,15.06
2019-06-10T00:57:12.395Z,15.06
2019-06-10T00:59:42.220Z,15.06
2019-06-10T01:02:14.064Z,15.07
2019-06-10T01:04:42.657Z,15.12
2019-06-10T01:07:14.697Z,15.18
2019-06-10T01:09:43.111Z,15.25
2019-06-10T01:12:14.753Z,15.31
2019-06-10T01:14:43.511Z,15.35
2019-06-10T01:17:15.233Z,15.37
2019-06-10T01:19:43.912Z,15.40
2019-06-10T01:22:14.211Z,15.42
2019-06-10T01:24:44.342Z,15.43
2019-06-10T01:27:15.108Z,15.45
2019-06-10T01:29:44.546Z,15.45
2019-06-10T01:32:15.080Z,15.46
2019-06-10T01:34:44.645Z,15.46
2019-06-10T01:37:14.768Z,15.45
2019-06-10T01:39:45.062Z,15.45
2019-06-10T01:42:15.908Z,15.45
2019-06-10T01:44:45.494Z,15.46
2019-06-10T01:47:16.131Z,15.47
2019-06-10T01:49:45.942Z,15.46
2019-06-10T01:52:16.603Z,15.46
2019-06-10T01:54:46.357Z,15.45
2019-06-10T01:57:16.931Z,15.43
2019-06-10T01:59:46.671Z,15.39
2019-06-10T02:02:19.061Z,15.33
2019-06-10T02:04:51.644Z,15.28
2019-06-10T02:07:22.770Z,15.21
2019-06-10T02:09:51.772Z,15.16
2019-06-10T02:12:24.164Z,15.11
2019-06-10T02:14:52.281Z,15.06
2019-06-10T02:17:23.863Z,15.03
2019-06-10T02:19:52.720Z,15.02
2019-06-10T02:22:24.275Z,15.02
2019-06-10T02:24:53.163Z,15.01
2019-06-10T02:27:23.238Z,15.01
2019-06-10T02:29:52.648Z,15.01
2019-06-10T02:32:31.289Z,15.02
2019-06-10T02:35:08.095Z,15.03
2019-06-10T02:37:31.754Z,15.06
2019-06-10T02:39:56.161Z,15.06
2019-06-10T02:42:32.488Z,15.07
2019-06-10T02:45:03.729Z,15.05
2019-06-10T02:47:37.585Z,15.05
2019-06-10T02:50:08.807Z,15.01
2019-06-10T02:52:38.575Z,15.00
2019-06-10T02:55:06.776Z,14.98
2019-06-10T02:57:40.085Z,14.98
2019-06-10T03:00:20.913Z,14.98
2019-06-10T03:02:45.002Z,15.00
2019-06-10T03:05:14.475Z,15.01
2019-06-10T03:07:44.828Z,15.03
2019-06-10T03:10:16.269Z,15.04
2019-06-10T03:12:48.026Z,15.04
2019-06-10T03:15:17.912Z,15.05
2019-06-10T03:17:47.335Z,15.06
2019-06-10T03:20:17.836Z,15.06
2019-06-10T03:22:47.268Z,15.06
2019-06-10T03:25:16.733Z,15.07
2019-06-10T03:27:46.181Z,15.08
2019-06-10T03:30:25.391Z,15.10
2019-06-10T03:32:47.727Z,15.08
2019-06-10T03:35:19.244Z,15.10
2019-06-10T03:37:48.825Z,15.09
2019-06-10T03:40:18.524Z,15.08
2019-06-10T03:42:47.988Z,15.08
2019-06-10T03:45:19.042Z,15.05
2019-06-10T03:47:48.590Z,15.02
2019-06-10T03:50:19.214Z,14.99
2019-06-10T03:52:48.682Z,14.97
2019-06-10T03:55:19.309Z,14.92
2019-06-10T03:57:48.787Z,14.86
2019-06-10T04:00:19.495Z,14.82
2019-06-10T04:02:49.037Z,14.76
2019-06-10T04:05:19.439Z,14.71
2019-06-10T04:07:48.831Z,14.67
2019-06-10T04:10:19.502Z,14.62
2019-06-10T04:12:49.036Z,14.58
2019-06-10T04:15:19.659Z,14.53
2019-06-10T04:17:49.244Z,14.50
2019-06-10T04:20:19.788Z,14.48
2019-06-10T04:22:49.210Z,14.51
2019-06-10T04:25:19.807Z,14.55
2019-06-10T04:27:49.470Z,14.62
2019-06-10T04:30:20.079Z,14.68
2019-06-10T04:32:49.518Z,14.74
2019-06-10T04:35:18.888Z,14.82
2019-06-10T04:37:48.240Z,14.90
2019-06-10T04:40:18.710Z,14.97
2019-06-10T04:42:48.456Z,15.07
2019-06-10T04:45:18.681Z,15.15
2019-06-10T04:47:48.174Z,15.22
2019-06-10T04:50:25.043Z,15.28
2019-06-10T04:52:48.709Z,15.34
2019-06-10T04:55:18.798Z,15.39
2019-06-10T04:57:48.194Z,15.44
2019-06-10T05:00:19.177Z,15.49
2019-06-10T05:02:48.655Z,15.53
2019-06-10T05:05:18.989Z,15.57
2019-06-10T05:07:48.831Z,15.62
2019-06-10T05:10:19.120Z,15.66
2019-06-10T05:12:48.574Z,15.72
2019-06-10T05:15:19.416Z,15.79
2019-06-10T05:17:49.093Z,15.84
2019-06-10T05:20:22.309Z,15.90
2019-06-10T05:22:52.833Z,15.98
2019-06-10T05:25:23.810Z,16.04
2019-06-10T05:27:53.761Z,16.11
2019-06-10T05:30:25.990Z,16.19
2019-06-10T05:32:54.288Z,16.29
2019-06-10T05:35:26.593Z,16.40
2019-06-10T05:37:54.717Z,16.46
2019-06-10T05:40:25.125Z,16.51
2019-06-10T05:42:55.185Z,16.56
2019-06-10T05:45:26.373Z,16.71
2019-06-10T05:47:55.680Z,16.88
2019-06-10T05:50:25.591Z,17.07
2019-06-10T05:52:56.126Z,17.20
2019-06-10T05:55:25.600Z,17.30
2019-06-10T05:57:54.967Z,17.38
2019-06-10T06:00:26.009Z,17.36
2019-06-10T06:02:55.486Z,17.31
2019-06-10T06:05:26.062Z,17.31
2019-06-10T06:08:04.827Z,17.41
2019-06-10T06:10:27.234Z,17.48
2019-06-10T06:12:56.687Z,17.57
2019-06-10T06:15:27.388Z,17.67
2019-06-10T06:18:09.259Z,17.77
2019-06-10T06:20:29.269Z,17.83
2019-06-10T06:22:58.818Z,17.82
2019-06-10T06:25:29.874Z,17.85
2019-06-10T06:27:59.253Z,17.89
2019-06-10T06:30:30.144Z,17.94
2019-06-10T06:32:59.643Z,18.02
2019-06-10T06:35:29.041Z,18.05
2019-06-10T06:37:58.406Z,18.08
2019-06-10T06:40:29.221Z,18.14
2019-06-10T06:42:58.561Z,18.31
2019-06-10T06:45:27.920Z,19.21
2019-06-10T06:47:57.314Z,20.33
2019-06-10T06:50:28.345Z,21.14
2019-06-10T06:53:19.749Z,21.19
2019-06-10T06:55:31.272Z,21.33
2019-06-10T06:58:02.988Z,22.79
2019-06-10T07:00:54.380Z,23.53
2019-06-10T07:03:06.688Z,23.46
2019-06-10T07:05:38.950Z,23.23
2019-06-10T07:08:09.612Z,22.86
2019-06-10T07:10:41.446Z,22.49
2019-06-10T07:13:12.869Z,22.22
2019-06-10T07:15:47.124Z,22.30
2019-06-10T07:18:15.442Z,22.12
2019-06-10T07:20:45.806Z,22.10
2019-06-10T07:23:15.596Z,21.96
2019-06-10T07:25:47.558Z,22.17
2019-06-10T07:28:16.053Z,22.31
2019-06-10T07:30:51.774Z,22.29
2019-06-10T07:33:17.530Z,22.24
2019-06-10T07:35:46.913Z,22.34
2019-06-10T07:38:16.290Z,22.62
2019-06-10T07:40:45.963Z,23.21
2019-06-10T07:43:15.541Z,24.16
2019-06-10T07:45:47.696Z,24.25
2019-06-10T07:48:16.071Z,24.08
2019-06-10T07:50:45.920Z,24.17
2019-06-10T07:53:15.283Z,24.55
2019-06-10T07:55:46.588Z,25.17
2019-06-10T07:58:16.146Z,26.15
2019-06-10T08:00:48.216Z,26.68
2019-06-10T08:03:16.582Z,27.38
2019-06-10T08:05:46.740Z,28.18
2019-06-10T08:08:16.210Z,27.98
2019-06-10T08:10:46.406Z,27.03
2019-06-10T08:13:16.666Z,26.37
2019-06-10T08:15:46.329Z,26.01
2019-06-10T08:18:15.672Z,25.99
2019-06-10T08:20:45.522Z,25.45
2019-06-10T08:23:20.139Z,24.80
2019-06-10T08:25:54.610Z,24.64
2019-06-10T08:28:23.033Z,24.54
2019-06-10T08:30:53.201Z,24.57
2019-06-10T08:33:22.979Z,24.79
2019-06-10T08:35:59.918Z,26.09
2019-06-10T08:38:23.510Z,26.05
2019-06-10T08:40:53.011Z,25.89
2019-06-10T08:43:22.756Z,25.88
2019-06-10T08:45:53.018Z,25.82
2019-06-10T08:48:22.983Z,25.94
2019-06-10T08:50:53.513Z,26.07
2019-06-10T08:53:23.046Z,27.28
2019-06-10T08:55:53.492Z,28.09
2019-06-10T08:58:24.363Z,28.48
2019-06-10T09:00:54.022Z,29.25
2019-06-10T09:03:23.579Z,29.50
2019-06-10T09:05:57.675Z,29.95
2019-06-10T09:08:26.096Z,30.09
2019-06-10T09:10:55.752Z,30.33
2019-06-10T09:13:25.158Z,30.49
2019-06-10T09:16:09.975Z,29.91
2019-06-10T09:18:25.676Z,29.25
2019-06-10T09:20:56.228Z,30.30
2019-06-10T09:23:26.817Z,31.31
2019-06-10T09:25:57.683Z,31.61
2019-06-10T09:28:28.209Z,32.58
2019-06-10T09:30:59.225Z,33.22
2019-06-10T09:33:28.784Z,33.45
2019-06-10T09:35:58.174Z,33.37
2019-06-10T09:38:27.549Z,33.28
2019-06-10T09:41:01.889Z,33.69
2019-06-10T09:43:28.497Z,33.93
2019-06-10T09:45:58.321Z,34.60
2019-06-10T09:48:27.862Z,34.88
2019-06-10T09:50:59.125Z,35.40
2019-06-10T09:53:35.761Z,35.34
2019-06-10T09:55:59.444Z,35.22
2019-06-10T09:58:28.876Z,35.53
2019-06-10T10:01:02.983Z,35.50
2019-06-10T10:03:32.939Z,34.76
2019-06-10T10:06:11.515Z,34.32
2019-06-10T10:08:34.673Z,33.10
2019-06-10T10:11:04.115Z,32.35
2019-06-10T10:13:35.423Z,31.30
2019-06-10T10:16:05.595Z,30.80
2019-06-10T10:18:36.104Z,29.97
2019-06-10T10:21:05.584Z,29.43
2019-06-10T10:23:50.060Z,29.11
2019-06-10T10:26:05.976Z,28.76
2019-06-10T10:28:35.339Z,28.54
2019-06-10T10:31:04.865Z,28.05
2019-06-10T10:33:34.252Z,27.55
2019-06-10T10:36:03.694Z,27.55
2019-06-10T10:38:34.407Z,27.38
2019-06-10T10:41:13.438Z,27.38
2019-06-10T10:43:45.311Z,27.65
2019-06-10T10:46:14.371Z,27.82
2019-06-10T10:48:44.984Z,27.78
2019-06-10T10:51:14.465Z,27.57
2019-06-10T10:53:48.393Z,27.58
2019-06-10T10:56:14.889Z,27.35
2019-06-10T10:58:45.897Z,27.33
2019-06-10T11:01:16.435Z,27.38
2019-06-10T11:03:48.155Z,27.45
2019-06-10T11:06:18.467Z,27.63
2019-06-10T11:08:48.301Z,27.76
2019-06-10T11:11:18.457Z,27.83
2019-06-10T11:13:49.380Z,27.74
2019-06-10T11:16:18.740Z,27.75
2019-06-10T11:18:49.343Z,27.81
2019-06-10T11:21:18.861Z,27.66
2019-06-10T11:23:48.216Z,27.53
2019-06-10T11:26:17.600Z,27.51
2019-06-10T11:28:47.436Z,27.67
2019-06-10T11:31:16.897Z,27.79
2019-06-10T11:33:46.922Z,27.82
2019-06-10T11:36:16.307Z,27.74
2019-06-10T11:38:46.249Z,27.63
2019-06-10T11:41:15.587Z,27.47
2019-06-10T11:43:46.258Z,27.43
2019-06-10T11:46:15.764Z,27.28
2019-06-10T11:48:45.135Z,27.27
2019-06-10T11:51:14.580Z,27.32
2019-06-10T11:53:44.219Z,27.36
2019-06-10T11:56:14.117Z,27.51
2019-06-10T11:58:45.043Z,27.63
2019-06-10T12:01:14.403Z,27.65
2019-06-10T12:03:43.752Z,27.51
2019-06-10T12:06:14.635Z,27.38
2019-06-10T12:08:44.159Z,27.17
2019-06-10T12:11:13.747Z,27.03
2019-06-10T12:13:43.189Z,26.71
2019-06-10T12:18:44.206Z,26.51
2019-06-10T12:21:13.669Z,26.46
2019-06-10T12:23:44.121Z,26.41
2019-06-10T12:26:13.541Z,26.34
2019-06-10T12:28:43.433Z,26.41
2019-06-10T12:31:13.736Z,26.52
2019-06-10T12:33:43.278Z,26.54
2019-06-10T12:36:13.067Z,26.55
2019-06-10T12:38:43.426Z,26.60
2019-06-10T12:41:14.235Z,26.70
2019-06-10T12:43:43.715Z,26.76
2019-06-10T12:46:13.083Z,26.80
2019-06-10T12:48:42.855Z,26.78
2019-06-10T12:51:13.609Z,26.59
2019-06-10T12:53:43.568Z,26.47
2019-06-10T12:56:14.901Z,26.37
2019-06-10T12:58:47.002Z,26.32
2019-06-10T13:01:16.566Z,26.17
2019-06-10T13:03:45.996Z,26.06
2019-06-10T13:06:16.243Z,25.91
2019-06-10T13:08:47.562Z,26.02
2019-06-10T13:11:16.933Z,26.14
2019-06-10T13:13:46.390Z,26.24
2019-06-10T13:16:15.750Z,26.26
2019-06-10T13:18:45.128Z,26.38
2019-06-10T13:21:17.555Z,26.46
2019-06-10T13:23:45.640Z,26.56
2019-06-10T13:26:16.541Z,26.63
2019-06-10T13:28:46.060Z,26.61
2019-06-10T13:31:15.442Z,26.60
2019-06-10T13:33:44.811Z,26.56
2019-06-10T13:36:14.179Z,26.54
2019-06-10T13:38:43.523Z,26.45
2019-06-10T13:41:12.900Z,26.46
2019-06-10T13:43:43.521Z,26.48
2019-06-10T13:46:13.180Z,26.55
2019-06-10T13:48:43.190Z,26.55
2019-06-10T13:51:15.584Z,26.48
2019-06-10T13:53:46.277Z,26.46
2019-06-10T13:56:37.792Z,26.39
2019-06-10T13:58:46.524Z,26.34
2019-06-10T14:01:21.449Z,26.34
2019-06-10T14:03:47.028Z,26.27
2019-06-10T14:06:33.386Z,26.11
2019-06-10T14:08:47.506Z,25.96
2019-06-10T14:11:16.853Z,25.85
2019-06-10T14:13:46.224Z,25.74
2019-06-10T14:16:15.603Z,25.66
2019-06-10T14:18:44.953Z,25.61
2019-06-10T14:21:18.441Z,25.49
2019-06-10T14:23:45.391Z,25.47
2019-06-10T14:26:17.148Z,25.47
2019-06-10T14:28:45.903Z,25.46
2019-06-10T14:31:37.405Z,25.44
2019-06-10T14:33:46.338Z,25.41
2019-06-10T14:36:16.910Z,25.40
2019-06-10T14:38:46.487Z,25.42
2019-06-10T14:41:16.910Z,25.41
2019-06-10T14:43:46.293Z,25.38
2019-06-10T14:46:17.567Z,25.40
2019-06-10T14:48:46.725Z,25.38
2019-06-10T14:51:17.149Z,25.32
2019-06-10T14:53:46.720Z,25.27
2019-06-10T14:56:19.386Z,25.23
2019-06-10T14:58:47.303Z,25.21
2019-06-10T15:01:24.093Z,25.22
2019-06-10T15:03:47.728Z,25.21
2019-06-10T15:06:17.106Z,25.14
2019-06-10T15:08:46.526Z,25.05
2019-06-10T15:11:15.938Z,24.79
2019-06-10T15:13:45.298Z,24.42
2019-06-10T15:16:14.678Z,24.08
2019-06-10T15:18:44.036Z,23.82
2019-06-10T15:21:13.457Z,23.68
2019-06-10T15:23:43.117Z,23.52
2019-06-10T15:26:14.807Z,23.33
2019-06-10T15:28:43.510Z,23.21
2019-06-10T15:31:14.795Z,23.15
2019-06-10T15:33:43.946Z,23.07
2019-06-10T15:36:13.318Z,22.91
2019-06-10T15:38:44.063Z,22.58
2019-06-10T15:41:16.935Z,22.30
2019-06-10T15:43:44.597Z,22.22
2019-06-10T15:46:15.881Z,22.20
2019-06-10T15:48:45.189Z,22.19
2019-06-10T15:51:17.452Z,22.21
2019-06-10T15:53:45.572Z,22.21
2019-06-10T15:56:29.764Z,22.15
2019-06-10T15:58:46.957Z,22.06
2019-06-10T16:01:18.810Z,21.91
2019-06-10T16:03:47.424Z,21.73
2019-06-10T16:06:18.065Z,21.59
2019-06-10T16:08:47.488Z,21.40
2019-06-10T16:11:18.910Z,21.21
2019-06-10T16:13:47.967Z,21.09
2019-06-10T16:16:17.344Z,21.02
2019-06-10T16:18:47.244Z,20.88
2019-06-10T16:21:17.456Z,20.61
2019-06-10T16:23:47.774Z,20.28
2019-06-10T16:26:17.955Z,20.04
2019-06-10T16:28:47.529Z,19.80
2019-06-10T16:31:18.258Z,19.61
2019-06-10T16:33:49.394Z,19.45
2019-06-10T16:36:19.017Z,19.28
2019-06-10T16:38:48.851Z,19.16
2019-06-10T16:41:19.470Z,18.97
2019-06-10T16:43:48.907Z,18.89
2019-06-10T16:46:18.316Z,18.73
2019-06-10T16:48:47.687Z,18.57
2019-06-10T16:51:17.414Z,18.47
2019-06-10T16:53:46.889Z,18.45
2019-06-10T16:56:17.642Z,18.46
2019-06-10T16:58:48.204Z,18.42
2019-06-10T17:01:18.366Z,18.37
2019-06-10T17:03:47.946Z,18.27
2019-06-10T17:06:17.510Z,18.06
2019-06-10T17:08:46.881Z,17.97
2019-06-10T17:11:16.278Z,17.90
2019-06-10T17:13:45.675Z,17.86
2019-06-10T17:16:15.064Z,17.79
2019-06-10T17:18:44.446Z,17.74
2019-06-10T17:21:14.003Z,17.78
2019-06-10T17:23:43.773Z,17.80
2019-06-10T17:26:13.282Z,17.75
2019-06-10T17:28:42.993Z,17.69
2019-06-10T17:31:12.517Z,17.64
2019-06-10T17:33:42.759Z,17.63
2019-06-10T17:36:12.714Z,17.66
2019-06-10T17:38:43.144Z,17.66
2019-06-10T17:41:13.243Z,17.70
2019-06-10T17:43:43.097Z,17.68
2019-06-10T17:46:14.496Z,17.73
2019-06-10T17:48:43.982Z,17.74
2019-06-10T17:51:13.362Z,17.74
2019-06-10T17:53:42.858Z,17.74
2019-06-10T17:56:13.326Z,17.78
2019-06-10T17:58:53.288Z,17.79
2019-06-10T18:01:13.977Z,17.81
2019-06-10T18:03:43.369Z,17.83
2019-06-10T18:06:13.449Z,17.85
2019-06-10T18:08:42.999Z,17.87
2019-06-10T18:11:12.912Z,17.88
2019-06-10T18:13:42.824Z,17.88
2019-06-10T18:16:13.119Z,17.89
2019-06-10T18:18:42.805Z,17.87
2019-06-10T18:21:12.679Z,17.87
2019-06-10T18:23:43.418Z,17.85
2019-06-10T18:26:13.086Z,17.83
2019-06-10T18:29:00.911Z,17.80
2019-06-10T18:31:13.536Z,17.80
2019-06-10T18:33:43.028Z,17.78
2019-06-10T18:36:12.416Z,17.76
2019-06-10T18:38:43.390Z,17.76
2019-06-10T18:41:13.011Z,17.69
2019-06-10T18:43:42.365Z,17.62
2019-06-10T18:46:12.776Z,17.54
2019-06-10T18:48:43.160Z,17.49
2019-06-10T18:51:12.799Z,17.47
2019-06-10T18:53:42.724Z,17.44
2019-06-10T18:56:13.285Z,17.41
2019-06-10T18:58:42.787Z,17.36
2019-06-10T19:01:12.583Z,17.30
2019-06-10T19:03:42.956Z,17.27
2019-06-10T19:06:12.813Z,17.22
2019-06-10T19:08:44.365Z,17.19
2019-06-10T19:11:13.362Z,17.12
2019-06-10T19:13:43.625Z,17.05
2019-06-10T19:16:13.312Z,16.98
2019-06-10T19:18:43.305Z,16.94
2019-06-10T19:21:13.881Z,16.92
2019-06-10T19:23:44.000Z,16.90
2019-06-10T19:26:13.743Z,16.92
2019-06-10T19:28:45.262Z,16.94
2019-06-10T19:31:14.291Z,16.96
2019-06-10T19:33:45.133Z,16.94
2019-06-10T19:36:14.877Z,16.88
2019-06-10T19:38:44.467Z,16.79
2019-06-10T19:41:13.886Z,16.68
2019-06-10T19:43:45.394Z,16.58
2019-06-10T19:46:15.873Z,16.51
2019-06-10T19:48:56.928Z,16.46
2019-06-10T19:51:16.521Z,16.44
2019-06-10T19:53:45.974Z,16.41
2019-06-10T19:56:15.527Z,16.38
2019-06-10T19:58:46.446Z,16.36
2019-06-10T20:01:16.060Z,16.33
2019-06-10T20:03:47.054Z,16.31
2019-06-10T20:06:17.036Z,16.28
2019-06-10T20:08:47.051Z,16.27
2019-06-10T20:11:17.085Z,16.24
2019-06-10T20:14:06.549Z,16.22
2019-06-10T20:16:35.979Z,16.21
2019-06-10T20:19:05.681Z,16.16
2019-06-10T20:21:36.016Z,16.15
2019-06-10T20:24:05.804Z,16.14
2019-06-10T20:26:36.548Z,16.11
2019-06-10T20:29:06.186Z,16.06
2019-06-10T20:31:35.850Z,16.00
2019-06-10T20:34:05.302Z,15.96
2019-06-10T20:36:35.653Z,15.95
2019-06-10T20:39:08.025Z,15.92
2019-06-10T20:41:37.457Z,15.89
2019-06-10T20:44:06.854Z,15.88
2019-06-10T20:46:36.206Z,15.89
2019-06-10T20:49:05.576Z,15.92
2019-06-10T20:51:48.653Z,15.90
2019-06-10T20:54:05.988Z,15.88
2019-06-10T20:56:35.359Z,15.89
2019-06-10T20:59:04.884Z,15.90
2019-06-10T21:01:34.254Z,15.90
2019-06-10T21:04:03.926Z,15.89
2019-06-10T21:06:35.405Z,15.89
2019-06-10T21:09:08.180Z,15.90
2019-06-10T21:11:39.862Z,15.86
2019-06-10T21:14:09.285Z,15.86
2019-06-10T21:16:39.899Z,15.86
2019-06-10T21:19:09.265Z,15.84
2019-06-10T21:21:38.622Z,15.85
2019-06-10T21:24:07.994Z,15.81
2019-06-10T21:26:37.376Z,15.80
2019-06-10T21:29:06.777Z,15.80
2019-06-10T21:31:36.144Z,15.79
2019-06-10T21:34:05.499Z,15.79
2019-06-10T21:36:34.864Z,15.77
2019-06-10T21:39:05.922Z,15.73
2019-06-10T21:41:35.271Z,15.68
2019-06-10T21:44:04.692Z,15.65
2019-06-10T21:46:34.173Z,15.64
2019-06-10T21:49:03.554Z,15.61
2019-06-10T21:51:34.704Z,15.60
2019-06-10T21:54:05.130Z,15.60
2019-06-10T21:56:34.520Z,15.61
2019-06-10T21:59:03.895Z,15.64
2019-06-10T22:01:33.460Z,15.65
2019-06-10T22:04:04.572Z,15.67
2019-06-10T22:06:34.118Z,15.69
2019-06-10T22:09:06.397Z,15.75
2019-06-10T22:11:35.754Z,15.77
2019-06-10T22:14:05.382Z,15.78
2019-06-10T22:16:34.753Z,15.78
2019-06-10T22:19:04.213Z,15.81
2019-06-10T22:21:33.524Z,15.84
2019-06-10T22:24:02.908Z,15.85
2019-06-10T22:26:32.402Z,15.83
2019-06-10T22:29:01.743Z,15.85
2019-06-10T22:31:32.616Z,15.87
2019-06-10T22:34:03.375Z,15.86
2019-06-10T22:36:32.929Z,15.88
2019-06-10T22:39:03.261Z,15.91
2019-06-10T22:41:34.491Z,15.92
2019-06-10T22:44:03.937Z,15.93
2019-06-10T22:46:33.323Z,15.92
2019-06-10T22:49:03.136Z,15.93
2019-06-10T22:51:33.079Z,15.93
2019-06-10T22:54:03.460Z,15.91
2019-06-10T22:56:34.112Z,15.86
2019-06-10T22:59:03.684Z,15.87
2019-06-10T23:01:37.986Z,15.87
2019-06-10T23:04:04.306Z,15.87
2019-06-10T23:06:34.075Z,15.87
2019-06-10T23:09:04.555Z,15.83
2019-06-10T23:11:34.199Z,15.80
2019-06-10T23:14:03.610Z,15.80
2019-06-10T23:16:33.060Z,15.82
2019-06-10T23:19:03.030Z,15.80
2019-06-10T23:21:33.491Z,15.78
2019-06-10T23:24:03.288Z,15.75
2019-06-10T23:26:33.344Z,15.76
2019-06-10T23:29:03.712Z,15.77
2019-06-10T23:31:46.212Z,15.76
2019-06-10T23:34:04.256Z,15.74
2019-06-10T23:36:34.627Z,15.69
2019-06-10T23:39:04.789Z,15.67
2019-06-10T23:41:34.132Z,15.68
2019-06-10T23:44:04.851Z,15.66
2019-06-10T23:46:35.167Z,15.64
2019-06-10T23:49:04.787Z,15.60
2019-06-10T23:51:34.259Z,15.61
2019-06-10T23:54:06.087Z,15.62
2019-06-10T23:56:34.792Z,15.62
2019-06-10T23:59:04.816Z,15.62
